sensor_id;sensor_type;location;lat;lon;timestamp;P1;durP1;ratioP1;P2;durP2;ratioP2
73276;SDS011;61501;43.316;5.372;2023-12-20T00:01:32;16.08;;;14.63;;
73276;SDS011;61501;43.316;5.372;2023-12-20T00:03:57;15.48;;;13.98;;
73276;SDS011;61501;43.316;5.372;2023-12-20T00:06:23;15.30;;;14.00;;
73276;SDS011;61501;43.316;5.372;2023-12-20T00:08:49;15.45;;;13.98;;
73276;SDS011;61501;43.316;5.372;2023-12-20T00:11:14;15.65;;;14.15;;
73276;SDS011;61501;43.316;5.372;2023-12-20T00:13:40;14.50;;;13.10;;
73276;SDS011;61501;43.316;5.372;2023-12-20T00:16:06;15.38;;;13.75;;
73276;SDS011;61501;43.316;5.372;2023-12-20T00:18:31;13.98;;;12.68;;
73276;SDS011;61501;43.316;5.372;2023-12-20T00:20:57;14.10;;;12.90;;
73276;SDS011;61501;43.316;5.372;2023-12-20T00:23:23;14.85;;;13.35;;
73276;SDS011;61501;43.316;5.372;2023-12-20T00:25:48;12.70;;;11.50;;
73276;SDS011;61501;43.316;5.372;2023-12-20T00:28:14;13.52;;;12.27;;
73276;SDS011;61501;43.316;5.372;2023-12-20T00:30:40;13.05;;;11.85;;
73276;SDS011;61501;43.316;5.372;2023-12-20T00:33:06;11.77;;;10.60;;
73276;SDS011;61501;43.316;5.372;2023-12-20T00:35:31;12.90;;;11.73;;
73276;SDS011;61501;43.316;5.372;2023-12-20T00:37:58;11.88;;;10.82;;
73276;SDS011;61501;43.316;5.372;2023-12-20T00:40:24;12.98;;;11.73;;
73276;SDS011;61501;43.316;5.372;2023-12-20T00:42:49;11.98;;;10.80;;
73276;SDS011;61501;43.316;5.372;2023-12-20T00:45:15;11.55;;;10.38;;
73276;SDS011;61501;43.316;5.372;2023-12-20T00:47:41;10.80;;;9.82;;
73276;SDS011;61501;43.316;5.372;2023-12-20T00:50:07;10.60;;;9.48;;
73276;SDS011;61501;43.316;5.372;2023-12-20T00:52:34;11.07;;;10.07;;
73276;SDS011;61501;43.316;5.372;2023-12-20T00:54:59;10.82;;;9.82;;
73276;SDS011;61501;43.316;5.372;2023-12-20T00:57:25;11.35;;;10.25;;
73276;SDS011;61501;43.316;5.372;2023-12-20T00:59:51;11.57;;;10.45;;
73276;SDS011;61501;43.316;5.372;2023-12-20T01:02:16;11.98;;;10.75;;
73276;SDS011;61501;43.316;5.372;2023-12-20T01:04:42;10.35;;;9.45;;
73276;SDS011;61501;43.316;5.372;2023-12-20T01:07:08;11.70;;;10.50;;
73276;SDS011;61501;43.316;5.372;2023-12-20T01:09:33;11.05;;;9.95;;
73276;SDS011;61501;43.316;5.372;2023-12-20T01:11:59;10.43;;;9.25;;
73276;SDS011;61501;43.316;5.372;2023-12-20T01:14:24;10.65;;;9.70;;
73276;SDS011;61501;43.316;5.372;2023-12-20T01:16:50;9.75;;;8.80;;
73276;SDS011;61501;43.316;5.372;2023-12-20T01:19:16;9.93;;;9.02;;
73276;SDS011;61501;43.316;5.372;2023-12-20T01:21:42;10.55;;;9.55;;
73276;SDS011;61501;43.316;5.372;2023-12-20T01:24:07;10.95;;;9.95;;
73276;SDS011;61501;43.316;5.372;2023-12-20T01:26:33;10.15;;;9.25;;
73276;SDS011;61501;43.316;5.372;2023-12-20T01:28:58;9.60;;;8.73;;
73276;SDS011;61501;43.316;5.372;2023-12-20T01:31:24;10.50;;;9.60;;
73276;SDS011;61501;43.316;5.372;2023-12-20T01:33:52;9.85;;;8.85;;
73276;SDS011;61501;43.316;5.372;2023-12-20T01:36:18;9.95;;;9.02;;
73276;SDS011;61501;43.316;5.372;2023-12-20T01:38:43;10.02;;;8.90;;
73276;SDS011;61501;43.316;5.372;2023-12-20T01:41:09;9.85;;;8.85;;
73276;SDS011;61501;43.316;5.372;2023-12-20T01:43:34;9.50;;;8.60;;
73276;SDS011;61501;43.316;5.372;2023-12-20T01:46:00;9.93;;;9.02;;
73276;SDS011;61501;43.316;5.372;2023-12-20T01:48:26;9.15;;;8.15;;
73276;SDS011;61501;43.316;5.372;2023-12-20T01:50:53;9.32;;;8.52;;
73276;SDS011;61501;43.316;5.372;2023-12-20T01:53:19;9.52;;;8.63;;
73276;SDS011;61501;43.316;5.372;2023-12-20T01:55:46;9.40;;;8.60;;
73276;SDS011;61501;43.316;5.372;2023-12-20T01:58:15;11.07;;;8.75;;
73276;SDS011;61501;43.316;5.372;2023-12-20T02:00:41;9.48;;;8.50;;
73276;SDS011;61501;43.316;5.372;2023-12-20T02:03:07;9.82;;;8.93;;
73276;SDS011;61501;43.316;5.372;2023-12-20T02:05:34;8.65;;;7.75;;
73276;SDS011;61501;43.316;5.372;2023-12-20T02:08:03;8.98;;;8.18;;
73276;SDS011;61501;43.316;5.372;2023-12-20T02:10:30;8.55;;;7.75;;
73276;SDS011;61501;43.316;5.372;2023-12-20T02:12:56;7.65;;;6.95;;
73276;SDS011;61501;43.316;5.372;2023-12-20T02:15:22;7.10;;;6.50;;
73276;SDS011;61501;43.316;5.372;2023-12-20T02:17:48;8.40;;;6.75;;
73276;SDS011;61501;43.316;5.372;2023-12-20T02:20:14;5.45;;;4.95;;
73276;SDS011;61501;43.316;5.372;2023-12-20T02:22:40;5.43;;;4.57;;
73276;SDS011;61501;43.316;5.372;2023-12-20T02:25:05;4.85;;;4.43;;
73276;SDS011;61501;43.316;5.372;2023-12-20T02:27:31;5.43;;;4.53;;
73276;SDS011;61501;43.316;5.372;2023-12-20T02:29:57;3.92;;;3.35;;
73276;SDS011;61501;43.316;5.372;2023-12-20T02:32:23;7.32;;;3.45;;
73276;SDS011;61501;43.316;5.372;2023-12-20T02:34:53;4.50;;;3.17;;
73276;SDS011;61501;43.316;5.372;2023-12-20T02:37:19;3.50;;;3.10;;
73276;SDS011;61501;43.316;5.372;2023-12-20T02:39:44;4.65;;;3.33;;
73276;SDS011;61501;43.316;5.372;2023-12-20T02:42:10;4.25;;;3.58;;
73276;SDS011;61501;43.316;5.372;2023-12-20T02:44:36;3.97;;;3.58;;
73276;SDS011;61501;43.316;5.372;2023-12-20T02:47:02;3.83;;;3.33;;
73276;SDS011;61501;43.316;5.372;2023-12-20T02:49:28;4.47;;;2.90;;
73276;SDS011;61501;43.316;5.372;2023-12-20T02:51:53;4.10;;;3.42;;
73276;SDS011;61501;43.316;5.372;2023-12-20T02:54:19;3.67;;;3.30;;
73276;SDS011;61501;43.316;5.372;2023-12-20T02:56:44;3.60;;;3.08;;
73276;SDS011;61501;43.316;5.372;2023-12-20T02:59:10;4.10;;;3.17;;
73276;SDS011;61501;43.316;5.372;2023-12-20T03:01:39;4.18;;;3.20;;
73276;SDS011;61501;43.316;5.372;2023-12-20T03:04:10;3.80;;;3.13;;
73276;SDS011;61501;43.316;5.372;2023-12-20T03:06:37;3.25;;;2.95;;
73276;SDS011;61501;43.316;5.372;2023-12-20T03:09:02;4.07;;;3.25;;
73276;SDS011;61501;43.316;5.372;2023-12-20T03:11:29;3.38;;;3.08;;
73276;SDS011;61501;43.316;5.372;2023-12-20T03:13:57;3.92;;;3.10;;
73276;SDS011;61501;43.316;5.372;2023-12-20T03:16:23;4.93;;;3.25;;
73276;SDS011;61501;43.316;5.372;2023-12-20T03:18:49;6.40;;;3.10;;
73276;SDS011;61501;43.316;5.372;2023-12-20T03:21:15;6.13;;;3.78;;
73276;SDS011;61501;43.316;5.372;2023-12-20T03:23:40;3.72;;;2.90;;
73276;SDS011;61501;43.316;5.372;2023-12-20T03:26:07;3.35;;;2.97;;
73276;SDS011;61501;43.316;5.372;2023-12-20T03:28:33;4.03;;;3.42;;
73276;SDS011;61501;43.316;5.372;2023-12-20T03:30:58;3.92;;;3.53;;
73276;SDS011;61501;43.316;5.372;2023-12-20T03:33:24;4.18;;;3.53;;
73276;SDS011;61501;43.316;5.372;2023-12-20T03:35:50;4.65;;;3.45;;
73276;SDS011;61501;43.316;5.372;2023-12-20T03:38:15;4.50;;;3.40;;
73276;SDS011;61501;43.316;5.372;2023-12-20T03:40:41;5.70;;;3.40;;
73276;SDS011;61501;43.316;5.372;2023-12-20T03:43:07;3.70;;;3.10;;
73276;SDS011;61501;43.316;5.372;2023-12-20T03:45:33;3.90;;;3.50;;
73276;SDS011;61501;43.316;5.372;2023-12-20T03:47:58;3.45;;;2.92;;
73276;SDS011;61501;43.316;5.372;2023-12-20T03:50:24;4.63;;;3.05;;
73276;SDS011;61501;43.316;5.372;2023-12-20T03:52:52;3.38;;;3.08;;
73276;SDS011;61501;43.316;5.372;2023-12-20T03:55:18;3.72;;;3.33;;
73276;SDS011;61501;43.316;5.372;2023-12-20T03:57:44;4.13;;;3.38;;
73276;SDS011;61501;43.316;5.372;2023-12-20T04:00:11;4.15;;;3.22;;
73276;SDS011;61501;43.316;5.372;2023-12-20T04:02:37;3.78;;;3.35;;
73276;SDS011;61501;43.316;5.372;2023-12-20T04:05:03;4.40;;;3.38;;
73276;SDS011;61501;43.316;5.372;2023-12-20T04:07:30;4.85;;;3.42;;
73276;SDS011;61501;43.316;5.372;2023-12-20T04:09:55;4.43;;;2.92;;
73276;SDS011;61501;43.316;5.372;2023-12-20T04:12:21;3.28;;;2.92;;
73276;SDS011;61501;43.316;5.372;2023-12-20T04:14:47;5.00;;;3.22;;
73276;SDS011;61501;43.316;5.372;2023-12-20T04:17:12;3.30;;;3.00;;
73276;SDS011;61501;43.316;5.372;2023-12-20T04:19:40;3.88;;;3.45;;
73276;SDS011;61501;43.316;5.372;2023-12-20T04:22:06;4.38;;;3.30;;
73276;SDS011;61501;43.316;5.372;2023-12-20T04:24:32;3.60;;;3.13;;
73276;SDS011;61501;43.316;5.372;2023-12-20T04:26:58;3.85;;;3.42;;
73276;SDS011;61501;43.316;5.372;2023-12-20T04:29:23;4.43;;;3.25;;
73276;SDS011;61501;43.316;5.372;2023-12-20T04:31:49;3.97;;;2.92;;
73276;SDS011;61501;43.316;5.372;2023-12-20T04:34:16;3.53;;;3.20;;
73276;SDS011;61501;43.316;5.372;2023-12-20T04:36:42;3.78;;;3.10;;
73276;SDS011;61501;43.316;5.372;2023-12-20T04:39:08;3.30;;;2.92;;
73276;SDS011;61501;43.316;5.372;2023-12-20T04:41:33;3.42;;;2.92;;
73276;SDS011;61501;43.316;5.372;2023-12-20T04:43:59;4.35;;;3.08;;
73276;SDS011;61501;43.316;5.372;2023-12-20T04:46:25;4.50;;;3.08;;
73276;SDS011;61501;43.316;5.372;2023-12-20T04:48:51;3.90;;;3.20;;
73276;SDS011;61501;43.316;5.372;2023-12-20T04:51:17;4.53;;;3.03;;
73276;SDS011;61501;43.316;5.372;2023-12-20T04:53:43;4.47;;;2.88;;
73276;SDS011;61501;43.316;5.372;2023-12-20T04:56:08;3.42;;;2.95;;
73276;SDS011;61501;43.316;5.372;2023-12-20T04:58:34;5.38;;;3.17;;
73276;SDS011;61501;43.316;5.372;2023-12-20T05:01:00;3.38;;;2.80;;
73276;SDS011;61501;43.316;5.372;2023-12-20T05:03:26;3.05;;;2.75;;
73276;SDS011;61501;43.316;5.372;2023-12-20T05:05:51;2.90;;;2.33;;
73276;SDS011;61501;43.316;5.372;2023-12-20T05:08:17;4.25;;;2.90;;
73276;SDS011;61501;43.316;5.372;2023-12-20T05:10:43;3.08;;;2.78;;
73276;SDS011;61501;43.316;5.372;2023-12-20T05:13:08;3.58;;;2.58;;
73276;SDS011;61501;43.316;5.372;2023-12-20T05:15:34;3.35;;;2.60;;
73276;SDS011;61501;43.316;5.372;2023-12-20T05:17:59;2.88;;;2.20;;
73276;SDS011;61501;43.316;5.372;2023-12-20T05:20:25;3.78;;;2.58;;
73276;SDS011;61501;43.316;5.372;2023-12-20T05:22:51;2.65;;;2.30;;
73276;SDS011;61501;43.316;5.372;2023-12-20T05:25:16;5.15;;;2.50;;
73276;SDS011;61501;43.316;5.372;2023-12-20T05:27:42;3.33;;;2.53;;
73276;SDS011;61501;43.316;5.372;2023-12-20T05:30:08;3.25;;;2.22;;
73276;SDS011;61501;43.316;5.372;2023-12-20T05:32:34;3.40;;;2.10;;
73276;SDS011;61501;43.316;5.372;2023-12-20T05:34:59;3.75;;;2.80;;
73276;SDS011;61501;43.316;5.372;2023-12-20T05:37:25;4.22;;;2.40;;
73276;SDS011;61501;43.316;5.372;2023-12-20T05:39:50;3.10;;;2.22;;
73276;SDS011;61501;43.316;5.372;2023-12-20T05:42:16;2.78;;;2.45;;
73276;SDS011;61501;43.316;5.372;2023-12-20T05:44:42;3.53;;;2.42;;
73276;SDS011;61501;43.316;5.372;2023-12-20T05:47:07;3.75;;;2.30;;
73276;SDS011;61501;43.316;5.372;2023-12-20T05:49:33;4.57;;;2.55;;
73276;SDS011;61501;43.316;5.372;2023-12-20T05:51:58;4.28;;;1.98;;
73276;SDS011;61501;43.316;5.372;2023-12-20T05:54:24;3.85;;;2.55;;
73276;SDS011;61501;43.316;5.372;2023-12-20T05:56:49;3.35;;;1.70;;
73276;SDS011;61501;43.316;5.372;2023-12-20T05:59:15;5.50;;;2.20;;
73276;SDS011;61501;43.316;5.372;2023-12-20T06:01:41;3.05;;;1.70;;
73276;SDS011;61501;43.316;5.372;2023-12-20T06:04:07;1.90;;;1.25;;
73276;SDS011;61501;43.316;5.372;2023-12-20T06:06:32;3.00;;;1.60;;
73276;SDS011;61501;43.316;5.372;2023-12-20T06:08:58;2.10;;;1.50;;
73276;SDS011;61501;43.316;5.372;2023-12-20T06:11:24;2.58;;;1.60;;
73276;SDS011;61501;43.316;5.372;2023-12-20T06:13:49;3.08;;;1.77;;
73276;SDS011;61501;43.316;5.372;2023-12-20T06:16:18;3.45;;;1.52;;
73276;SDS011;61501;43.316;5.372;2023-12-20T06:18:43;3.17;;;1.60;;
73276;SDS011;61501;43.316;5.372;2023-12-20T06:21:09;2.00;;;1.42;;
73276;SDS011;61501;43.316;5.372;2023-12-20T06:23:38;2.30;;;1.55;;
73276;SDS011;61501;43.316;5.372;2023-12-20T06:26:03;8.00;;;1.80;;
73276;SDS011;61501;43.316;5.372;2023-12-20T06:28:29;2.35;;;1.27;;
73276;SDS011;61501;43.316;5.372;2023-12-20T06:30:55;4.00;;;1.50;;
73276;SDS011;61501;43.316;5.372;2023-12-20T06:33:22;2.75;;;1.70;;
73276;SDS011;61501;43.316;5.372;2023-12-20T06:35:48;2.38;;;1.42;;
73276;SDS011;61501;43.316;5.372;2023-12-20T06:38:14;5.22;;;2.00;;
73276;SDS011;61501;43.316;5.372;2023-12-20T06:40:39;3.05;;;1.77;;
73276;SDS011;61501;43.316;5.372;2023-12-20T06:43:05;5.40;;;1.63;;
73276;SDS011;61501;43.316;5.372;2023-12-20T06:45:31;2.70;;;1.40;;
73276;SDS011;61501;43.316;5.372;2023-12-20T06:47:57;2.67;;;1.40;;
73276;SDS011;61501;43.316;5.372;2023-12-20T06:50:23;3.30;;;1.25;;
73276;SDS011;61501;43.316;5.372;2023-12-20T06:55:48;2.83;;;1.38;;
73276;SDS011;61501;43.316;5.372;2023-12-20T06:58:13;3.95;;;1.20;;
73276;SDS011;61501;43.316;5.372;2023-12-20T07:00:39;6.20;;;1.23;;
73276;SDS011;61501;43.316;5.372;2023-12-20T07:03:04;4.45;;;1.65;;
73276;SDS011;61501;43.316;5.372;2023-12-20T07:05:30;4.18;;;1.50;;
73276;SDS011;61501;43.316;5.372;2023-12-20T07:07:56;2.42;;;1.30;;
73276;SDS011;61501;43.316;5.372;2023-12-20T07:10:21;3.65;;;1.23;;
73276;SDS011;61501;43.316;5.372;2023-12-20T07:12:47;5.85;;;1.40;;
73276;SDS011;61501;43.316;5.372;2023-12-20T07:15:13;8.43;;;1.58;;
73276;SDS011;61501;43.316;5.372;2023-12-20T07:17:39;3.22;;;1.10;;
73276;SDS011;61501;43.316;5.372;2023-12-20T07:20:05;2.40;;;1.25;;
73276;SDS011;61501;43.316;5.372;2023-12-20T07:22:34;2.03;;;1.10;;
73276;SDS011;61501;43.316;5.372;2023-12-20T07:25:00;3.92;;;1.30;;
73276;SDS011;61501;43.316;5.372;2023-12-20T07:27:26;2.85;;;1.13;;
73276;SDS011;61501;43.316;5.372;2023-12-20T07:29:52;3.38;;;1.10;;
73276;SDS011;61501;43.316;5.372;2023-12-20T07:32:18;4.10;;;1.10;;
73276;SDS011;61501;43.316;5.372;2023-12-20T07:34:44;3.38;;;1.10;;
73276;SDS011;61501;43.316;5.372;2023-12-20T07:37:10;6.68;;;1.45;;
73276;SDS011;61501;43.316;5.372;2023-12-20T07:39:37;4.90;;;1.13;;
73276;SDS011;61501;43.316;5.372;2023-12-20T07:42:05;5.68;;;1.13;;
73276;SDS011;61501;43.316;5.372;2023-12-20T07:44:30;5.20;;;0.95;;
73276;SDS011;61501;43.316;5.372;2023-12-20T07:46:56;1.35;;;1.00;;
73276;SDS011;61501;43.316;5.372;2023-12-20T07:49:23;5.15;;;1.20;;
73276;SDS011;61501;43.316;5.372;2023-12-20T07:51:49;1.75;;;1.15;;
73276;SDS011;61501;43.316;5.372;2023-12-20T07:54:15;3.88;;;1.38;;
73276;SDS011;61501;43.316;5.372;2023-12-20T07:56:41;4.93;;;1.45;;
73276;SDS011;61501;43.316;5.372;2023-12-20T07:59:06;4.93;;;1.80;;
73276;SDS011;61501;43.316;5.372;2023-12-20T08:01:32;9.70;;;2.10;;
73276;SDS011;61501;43.316;5.372;2023-12-20T08:03:58;8.60;;;1.50;;
73276;SDS011;61501;43.316;5.372;2023-12-20T08:06:23;15.40;;;2.13;;
73276;SDS011;61501;43.316;5.372;2023-12-20T08:08:49;9.20;;;1.65;;
73276;SDS011;61501;43.316;5.372;2023-12-20T08:11:15;7.50;;;1.73;;
73276;SDS011;61501;43.316;5.372;2023-12-20T08:13:45;7.50;;;1.42;;
73276;SDS011;61501;43.316;5.372;2023-12-20T08:16:11;5.97;;;1.20;;
73276;SDS011;61501;43.316;5.372;2023-12-20T08:18:38;4.53;;;1.52;;
73276;SDS011;61501;43.316;5.372;2023-12-20T08:21:04;7.43;;;1.20;;
73276;SDS011;61501;43.316;5.372;2023-12-20T08:23:32;7.95;;;1.75;;
73276;SDS011;61501;43.316;5.372;2023-12-20T08:25:58;4.78;;;1.65;;
73276;SDS011;61501;43.316;5.372;2023-12-20T08:28:28;6.35;;;1.67;;
73276;SDS011;61501;43.316;5.372;2023-12-20T08:30:54;7.25;;;1.40;;
73276;SDS011;61501;43.316;5.372;2023-12-20T08:33:19;5.30;;;1.75;;
73276;SDS011;61501;43.316;5.372;2023-12-20T08:35:45;4.03;;;1.30;;
73276;SDS011;61501;43.316;5.372;2023-12-20T08:38:11;2.22;;;1.20;;
73276;SDS011;61501;43.316;5.372;2023-12-20T08:40:37;2.38;;;1.38;;
73276;SDS011;61501;43.316;5.372;2023-12-20T08:43:03;4.82;;;1.48;;
73276;SDS011;61501;43.316;5.372;2023-12-20T08:45:28;6.50;;;1.13;;
73276;SDS011;61501;43.316;5.372;2023-12-20T08:47:57;5.90;;;1.25;;
73276;SDS011;61501;43.316;5.372;2023-12-20T08:50:23;4.70;;;0.90;;
73276;SDS011;61501;43.316;5.372;2023-12-20T08:52:48;10.98;;;1.33;;
73276;SDS011;61501;43.316;5.372;2023-12-20T08:55:14;7.07;;;1.15;;
73276;SDS011;61501;43.316;5.372;2023-12-20T08:57:41;3.90;;;1.40;;
73276;SDS011;61501;43.316;5.372;2023-12-20T09:00:07;23.83;;;18.75;;
73276;SDS011;61501;43.316;5.372;2023-12-20T09:02:33;149.48;;;128.30;;
73276;SDS011;61501;43.316;5.372;2023-12-20T09:05:01;180.38;;;161.55;;
73276;SDS011;61501;43.316;5.372;2023-12-20T09:07:27;257.33;;;232.25;;
73276;SDS011;61501;43.316;5.372;2023-12-20T09:09:55;223.40;;;201.80;;
73276;SDS011;61501;43.316;5.372;2023-12-20T09:12:21;155.38;;;140.05;;
73276;SDS011;61501;43.316;5.372;2023-12-20T09:14:48;130.95;;;118.00;;
73276;SDS011;61501;43.316;5.372;2023-12-20T09:17:17;171.60;;;154.38;;
73276;SDS011;61501;43.316;5.372;2023-12-20T09:19:44;40.40;;;36.35;;
73276;SDS011;61501;43.316;5.372;2023-12-20T09:22:10;92.15;;;81.90;;
73276;SDS011;61501;43.316;5.372;2023-12-20T09:24:36;52.80;;;41.50;;
73276;SDS011;61501;43.316;5.372;2023-12-20T09:27:01;22.95;;;18.40;;
73276;SDS011;61501;43.316;5.372;2023-12-20T09:29:30;13.55;;;9.00;;
73276;SDS011;61501;43.316;5.372;2023-12-20T09:31:55;11.48;;;6.65;;
73276;SDS011;61501;43.316;5.372;2023-12-20T09:34:22;4.25;;;2.15;;
73276;SDS011;61501;43.316;5.372;2023-12-20T09:36:48;9.30;;;3.00;;
73276;SDS011;61501;43.316;5.372;2023-12-20T09:39:14;2.70;;;1.30;;
73276;SDS011;61501;43.316;5.372;2023-12-20T09:41:43;3.28;;;1.30;;
73276;SDS011;61501;43.316;5.372;2023-12-20T09:44:14;3.93;;;1.30;;
73276;SDS011;61501;43.316;5.372;2023-12-20T09:46:43;3.38;;;1.27;;
73276;SDS011;61501;43.316;5.372;2023-12-20T09:49:10;2.60;;;1.02;;
73276;SDS011;61501;43.316;5.372;2023-12-20T09:51:40;2.38;;;0.98;;
73276;SDS011;61501;43.316;5.372;2023-12-20T09:54:07;4.20;;;1.00;;
73276;SDS011;61501;43.316;5.372;2023-12-20T09:56:33;3.22;;;1.20;;
73276;SDS011;61501;43.316;5.372;2023-12-20T09:59:01;4.28;;;1.40;;
73276;SDS011;61501;43.316;5.372;2023-12-20T10:01:27;3.13;;;1.40;;
73276;SDS011;61501;43.316;5.372;2023-12-20T10:03:56;4.78;;;1.25;;
73276;SDS011;61501;43.316;5.372;2023-12-20T10:06:23;2.45;;;1.30;;
73276;SDS011;61501;43.316;5.372;2023-12-20T10:08:49;3.30;;;1.25;;
73276;SDS011;61501;43.316;5.372;2023-12-20T10:11:14;3.38;;;1.20;;
73276;SDS011;61501;43.316;5.372;2023-12-20T10:13:40;5.88;;;1.30;;
73276;SDS011;61501;43.316;5.372;2023-12-20T10:16:06;2.78;;;1.08;;
73276;SDS011;61501;43.316;5.372;2023-12-20T10:18:35;1.83;;;1.13;;
73276;SDS011;61501;43.316;5.372;2023-12-20T10:21:01;2.38;;;1.48;;
73276;SDS011;61501;43.316;5.372;2023-12-20T10:23:28;4.45;;;1.40;;
73276;SDS011;61501;43.316;5.372;2023-12-20T10:25:55;5.15;;;1.40;;
73276;SDS011;61501;43.316;5.372;2023-12-20T10:28:23;2.72;;;1.30;;
73276;SDS011;61501;43.316;5.372;2023-12-20T10:30:52;4.38;;;1.13;;
73276;SDS011;61501;43.316;5.372;2023-12-20T10:33:25;4.10;;;1.55;;
73276;SDS011;61501;43.316;5.372;2023-12-20T10:35:52;2.95;;;1.20;;
73276;SDS011;61501;43.316;5.372;2023-12-20T10:38:18;6.68;;;1.10;;
73276;SDS011;61501;43.316;5.372;2023-12-20T10:40:45;4.50;;;1.48;;
73276;SDS011;61501;43.316;5.372;2023-12-20T10:43:11;2.60;;;1.30;;
73276;SDS011;61501;43.316;5.372;2023-12-20T10:45:38;2.75;;;1.30;;
73276;SDS011;61501;43.316;5.372;2023-12-20T10:48:04;8.60;;;1.42;;
73276;SDS011;61501;43.316;5.372;2023-12-20T10:50:30;5.80;;;1.30;;
73276;SDS011;61501;43.316;5.372;2023-12-20T10:52:56;3.50;;;1.30;;
73276;SDS011;61501;43.316;5.372;2023-12-20T10:55:23;3.75;;;1.73;;
73276;SDS011;61501;43.316;5.372;2023-12-20T10:57:50;3.67;;;1.35;;
73276;SDS011;61501;43.316;5.372;2023-12-20T11:00:17;2.17;;;1.20;;
73276;SDS011;61501;43.316;5.372;2023-12-20T11:02:44;2.45;;;1.40;;
73276;SDS011;61501;43.316;5.372;2023-12-20T11:05:18;2.53;;;1.13;;
73276;SDS011;61501;43.316;5.372;2023-12-20T11:07:57;3.85;;;1.40;;
73276;SDS011;61501;43.316;5.372;2023-12-20T11:10:30;4.80;;;1.45;;
73276;SDS011;61501;43.316;5.372;2023-12-20T11:15:41;1.98;;;1.25;;
73276;SDS011;61501;43.316;5.372;2023-12-20T11:18:07;3.10;;;1.38;;
73276;SDS011;61501;43.316;5.372;2023-12-20T11:20:38;2.80;;;1.10;;
73276;SDS011;61501;43.316;5.372;2023-12-20T11:23:05;3.00;;;1.40;;
73276;SDS011;61501;43.316;5.372;2023-12-20T11:28:30;1.60;;;1.10;;
73276;SDS011;61501;43.316;5.372;2023-12-20T11:30:57;4.15;;;1.85;;
73276;SDS011;61501;43.316;5.372;2023-12-20T11:33:37;2.00;;;0.90;;
73276;SDS011;61501;43.316;5.372;2023-12-20T11:36:07;1.42;;;1.10;;
73276;SDS011;61501;43.316;5.372;2023-12-20T11:38:38;3.25;;;1.10;;
73276;SDS011;61501;43.316;5.372;2023-12-20T11:41:31;3.47;;;1.20;;
73276;SDS011;61501;43.316;5.372;2023-12-20T11:43:57;1.50;;;0.90;;
73276;SDS011;61501;43.316;5.372;2023-12-20T11:46:23;3.47;;;1.27;;
73276;SDS011;61501;43.316;5.372;2023-12-20T11:48:49;3.53;;;1.17;;
73276;SDS011;61501;43.316;5.372;2023-12-20T11:51:16;7.82;;;1.88;;
73276;SDS011;61501;43.316;5.372;2023-12-20T11:53:41;6.50;;;1.40;;
73276;SDS011;61501;43.316;5.372;2023-12-20T11:56:07;3.65;;;1.60;;
73276;SDS011;61501;43.316;5.372;2023-12-20T11:58:34;3.45;;;1.60;;
73276;SDS011;61501;43.316;5.372;2023-12-20T12:01:00;3.58;;;1.40;;
73276;SDS011;61501;43.316;5.372;2023-12-20T12:03:27;2.92;;;1.23;;
73276;SDS011;61501;43.316;5.372;2023-12-20T12:05:53;3.53;;;1.33;;
73276;SDS011;61501;43.316;5.372;2023-12-20T12:08:19;3.45;;;1.40;;
73276;SDS011;61501;43.316;5.372;2023-12-20T12:10:44;5.72;;;1.35;;
73276;SDS011;61501;43.316;5.372;2023-12-20T12:13:10;5.60;;;1.83;;
73276;SDS011;61501;43.316;5.372;2023-12-20T12:15:37;6.88;;;1.60;;
73276;SDS011;61501;43.316;5.372;2023-12-20T12:18:03;3.42;;;1.40;;
73276;SDS011;61501;43.316;5.372;2023-12-20T12:20:30;7.88;;;2.15;;
73276;SDS011;61501;43.316;5.372;2023-12-20T12:25:31;5.13;;;1.70;;
73276;SDS011;61501;43.316;5.372;2023-12-20T12:27:59;3.75;;;1.50;;
73276;SDS011;61501;43.316;5.372;2023-12-20T12:30:25;1.92;;;1.40;;
73276;SDS011;61501;43.316;5.372;2023-12-20T12:32:52;2.20;;;1.52;;
73276;SDS011;61501;43.316;5.372;2023-12-20T12:35:18;2.38;;;1.40;;
73276;SDS011;61501;43.316;5.372;2023-12-20T12:37:44;5.07;;;1.30;;
73276;SDS011;61501;43.316;5.372;2023-12-20T12:40:11;4.68;;;1.67;;
73276;SDS011;61501;43.316;5.372;2023-12-20T12:42:38;6.97;;;1.50;;
73276;SDS011;61501;43.316;5.372;2023-12-20T12:45:05;9.10;;;1.67;;
73276;SDS011;61501;43.316;5.372;2023-12-20T12:47:31;5.72;;;1.45;;
73276;SDS011;61501;43.316;5.372;2023-12-20T12:49:57;4.28;;;1.42;;
73276;SDS011;61501;43.316;5.372;2023-12-20T12:52:22;8.45;;;1.50;;
73276;SDS011;61501;43.316;5.372;2023-12-20T12:54:48;10.80;;;1.60;;
73276;SDS011;61501;43.316;5.372;2023-12-20T12:57:14;4.07;;;1.40;;
73276;SDS011;61501;43.316;5.372;2023-12-20T12:59:43;14.60;;;1.85;;
73276;SDS011;61501;43.316;5.372;2023-12-20T13:02:11;8.98;;;1.30;;
73276;SDS011;61501;43.316;5.372;2023-12-20T13:04:40;5.75;;;1.40;;
73276;SDS011;61501;43.316;5.372;2023-12-20T13:07:06;8.43;;;1.48;;
73276;SDS011;61501;43.316;5.372;2023-12-20T13:09:35;5.03;;;1.23;;
73276;SDS011;61501;43.316;5.372;2023-12-20T13:12:01;6.18;;;1.20;;
73276;SDS011;61501;43.316;5.372;2023-12-20T13:14:28;5.38;;;1.77;;
73276;SDS011;61501;43.316;5.372;2023-12-20T13:16:55;10.00;;;1.50;;
73276;SDS011;61501;43.316;5.372;2023-12-20T13:19:21;14.65;;;1.88;;
73276;SDS011;61501;43.316;5.372;2023-12-20T13:21:47;6.00;;;1.48;;
73276;SDS011;61501;43.316;5.372;2023-12-20T13:24:13;4.07;;;1.45;;
73276;SDS011;61501;43.316;5.372;2023-12-20T13:26:39;5.35;;;1.17;;
73276;SDS011;61501;43.316;5.372;2023-12-20T13:29:05;10.95;;;1.80;;
73276;SDS011;61501;43.316;5.372;2023-12-20T13:31:30;7.90;;;1.40;;
73276;SDS011;61501;43.316;5.372;2023-12-20T13:33:56;4.85;;;1.27;;
73276;SDS011;61501;43.316;5.372;2023-12-20T13:36:22;10.05;;;1.98;;
73276;SDS011;61501;43.316;5.372;2023-12-20T13:38:47;6.07;;;1.50;;
73276;SDS011;61501;43.316;5.372;2023-12-20T13:41:13;5.35;;;2.53;;
73276;SDS011;61501;43.316;5.372;2023-12-20T13:43:39;9.85;;;6.07;;
73276;SDS011;61501;43.316;5.372;2023-12-20T13:46:04;9.73;;;8.02;;
73276;SDS011;61501;43.316;5.372;2023-12-20T13:48:30;83.32;;;77.43;;
73276;SDS011;61501;43.316;5.372;2023-12-20T13:50:56;31.40;;;28.77;;
73276;SDS011;61501;43.316;5.372;2023-12-20T13:53:22;14.88;;;10.52;;
73276;SDS011;61501;43.316;5.372;2023-12-20T13:55:47;42.95;;;40.05;;
73276;SDS011;61501;43.316;5.372;2023-12-20T13:58:13;583.42;;;520.95;;
73276;SDS011;61501;43.316;5.372;2023-12-20T14:00:38;241.27;;;218.43;;
73276;SDS011;61501;43.316;5.372;2023-12-20T14:03:05;339.63;;;306.88;;
73276;SDS011;61501;43.316;5.372;2023-12-20T14:05:30;135.63;;;123.10;;
73276;SDS011;61501;43.316;5.372;2023-12-20T14:07:56;242.40;;;220.70;;
73276;SDS011;61501;43.316;5.372;2023-12-20T14:10:22;193.88;;;174.88;;
73276;SDS011;61501;43.316;5.372;2023-12-20T14:12:48;685.70;;;597.13;;
73276;SDS011;61501;43.316;5.372;2023-12-20T14:15:14;225.45;;;203.32;;
73276;SDS011;61501;43.316;5.372;2023-12-20T14:17:40;527.92;;;470.40;;
73276;SDS011;61501;43.316;5.372;2023-12-20T14:20:08;264.80;;;235.85;;
73276;SDS011;61501;43.316;5.372;2023-12-20T14:22:34;279.98;;;251.10;;
73276;SDS011;61501;43.316;5.372;2023-12-20T14:25:01;85.82;;;76.68;;
73276;SDS011;61501;43.316;5.372;2023-12-20T14:27:27;22.05;;;3.00;;
73276;SDS011;61501;43.316;5.372;2023-12-20T14:29:53;8.18;;;2.33;;
73276;SDS011;61501;43.316;5.372;2023-12-20T14:32:19;17.98;;;2.85;;
73276;SDS011;61501;43.316;5.372;2023-12-20T14:34:45;23.05;;;3.33;;
73276;SDS011;61501;43.316;5.372;2023-12-20T14:37:11;11.90;;;2.92;;
73276;SDS011;61501;43.316;5.372;2023-12-20T14:39:37;8.30;;;1.60;;
73276;SDS011;61501;43.316;5.372;2023-12-20T14:42:06;9.05;;;1.33;;
73276;SDS011;61501;43.316;5.372;2023-12-20T14:44:36;8.43;;;2.05;;
73276;SDS011;61501;43.316;5.372;2023-12-20T14:47:02;5.88;;;1.90;;